createdAt,value
2019-05-18T00:00:02.549Z,23.93
2019-05-18T00:03:05.508Z,23.60
2019-05-18T00:09:11.723Z,23.63
2019-05-18T00:11:48.797Z,27.40
2019-05-18T00:21:12.374Z,27.37
2019-05-18T00:24:08.805Z,26.03
2019-05-18T00:27:03.411Z,28.07
2019-05-18T00:32:53.457Z,32.97
2019-05-18T00:35:40.833Z,31.50
2019-05-18T00:41:32.278Z,31.70
2019-05-18T00:44:26.515Z,29.77
2019-05-18T00:50:02.122Z,32.07
2019-05-18T00:55:31.448Z,30.10
2019-05-18T00:58:31.034Z,35.23
2019-05-18T01:01:17.798Z,31.43
2019-05-18T01:04:02.550Z,33.77
2019-05-18T01:10:05.024Z,32.73
2019-05-18T01:13:12.901Z,37.20
2019-05-18T01:16:01.735Z,32.60
2019-05-18T01:21:52.872Z,31.63
2019-05-18T01:24:40.055Z,32.97
2019-05-18T01:31:14.890Z,33.90
2019-05-18T01:34:08.054Z,31.50
2019-05-18T01:37:18.006Z,30.53
2019-05-18T01:40:01.900Z,32.60
2019-05-18T01:42:53.222Z,30.70
2019-05-18T01:48:26.583Z,29.87
2019-05-18T01:54:16.159Z,31.90
2019-05-18T02:00:35.970Z,34.67
2019-05-18T02:03:35.238Z,39.97
2019-05-18T02:09:50.984Z,44.90
2019-05-18T02:13:02.903Z,38.97
2019-05-18T02:16:06.446Z,33.20
2019-05-18T02:18:34.496Z,34.80
2019-05-18T02:21:03.189Z,34.20
2019-05-18T02:26:18.986Z,36.43
2019-05-18T02:28:48.160Z,37.80
2019-05-18T02:33:54.816Z,43.33
2019-05-18T02:39:05.975Z,38.87
2019-05-18T02:41:34.651Z,44.60
2019-05-18T02:46:42.276Z,39.17
2019-05-18T02:49:11.334Z,41.00
2019-05-18T02:51:40.315Z,39.33
2019-05-18T02:54:09.046Z,44.43
2019-05-18T02:56:37.821Z,48.30
2019-05-18T03:01:55.876Z,49.40
2019-05-18T03:04:24.920Z,48.57
2019-05-18T03:06:53.943Z,48.03
2019-05-18T03:12:05.923Z,51.77
2019-05-18T03:14:35.086Z,54.90
2019-05-18T03:19:41.327Z,67.83
2019-05-18T03:22:10.373Z,68.33
2019-05-18T03:24:39.173Z,62.20
2019-05-18T03:29:48.563Z,52.03
2019-05-18T03:32:17.284Z,53.23
2019-05-18T03:37:31.888Z,51.77
2019-05-18T03:40:01.347Z,46.50
2019-05-18T03:45:11.424Z,55.23
2019-05-18T03:47:40.087Z,77.17
2019-05-18T03:52:47.221Z,57.83
2019-05-18T03:55:16.310Z,55.00
2019-05-18T03:57:44.950Z,52.33
2019-05-18T04:02:55.070Z,53.73
2019-05-18T04:08:17.306Z,56.60
2019-05-18T04:10:46.050Z,60.00
2019-05-18T04:13:15.097Z,50.77
2019-05-18T04:15:44.107Z,63.00
2019-05-18T04:18:13.184Z,46.90
2019-05-18T04:23:27.867Z,59.47
2019-05-18T04:25:58.305Z,55.17
2019-05-18T04:31:11.025Z,137.53
2019-05-18T04:33:40.020Z,109.57
2019-05-18T04:38:49.835Z,172.63
2019-05-18T04:41:18.629Z,180.10
2019-05-18T04:43:47.651Z,203.87
2019-05-18T04:46:16.697Z,212.60
2019-05-18T04:48:45.825Z,249.30
2019-05-18T04:51:14.813Z,208.23
2019-05-18T04:53:43.422Z,224.33
2019-05-18T04:58:56.064Z,188.40
2019-05-18T05:01:25.434Z,208.60
2019-05-18T05:03:54.663Z,224.23
2019-05-18T05:06:23.485Z,161.47
2019-05-18T05:08:53.027Z,161.37
2019-05-18T05:11:21.887Z,167.40
2019-05-18T05:16:30.854Z,144.70
2019-05-18T05:18:59.890Z,127.77
2019-05-18T05:21:28.805Z,113.77
2019-05-18T05:23:57.458Z,108.13
2019-05-18T05:26:26.691Z,94.73
2019-05-18T05:28:55.588Z,84.00
2019-05-18T05:31:24.307Z,84.90
2019-05-18T05:33:53.145Z,79.17
2019-05-18T05:36:22.617Z,72.40
2019-05-18T05:38:51.617Z,73.30
2019-05-18T05:44:12.082Z,71.30
2019-05-18T05:49:29.445Z,77.07
2019-05-18T05:54:43.841Z,69.83
2019-05-18T05:57:14.743Z,61.77
2019-05-18T06:02:25.966Z,67.73
2019-05-18T06:04:54.975Z,59.10
2019-05-18T06:07:24.274Z,56.50
2019-05-18T06:09:53.782Z,62.57
2019-05-18T06:12:23.248Z,52.37
2019-05-18T06:14:51.900Z,48.73
2019-05-18T06:17:20.685Z,49.03
2019-05-18T06:19:49.463Z,47.17
2019-05-18T06:25:03.697Z,42.97
2019-05-18T06:27:33.291Z,48.17
2019-05-18T06:30:02.393Z,41.60
2019-05-18T06:35:10.329Z,40.30
2019-05-18T06:37:39.138Z,42.83
2019-05-18T06:40:08.970Z,44.43
2019-05-18T06:42:39.105Z,41.23
2019-05-18T06:45:08.972Z,40.80
2019-05-18T06:47:38.217Z,34.83
2019-05-18T06:50:10.973Z,36.20
2019-05-18T06:52:38.225Z,36.27
2019-05-18T06:55:07.029Z,33.83
2019-05-18T06:57:36.862Z,32.13
2019-05-18T07:02:47.213Z,32.37
2019-05-18T07:05:15.864Z,28.63
2019-05-18T07:07:44.484Z,27.77
2019-05-18T07:10:13.165Z,28.47
2019-05-18T07:12:42.223Z,24.23
2019-05-18T07:15:12.089Z,26.90
2019-05-18T07:17:41.236Z,23.10
2019-05-18T07:20:11.224Z,27.23
2019-05-18T07:25:17.959Z,30.57
2019-05-18T07:27:46.670Z,24.30
2019-05-18T07:30:15.799Z,25.13
2019-05-18T07:32:44.516Z,22.00
2019-05-18T07:35:13.712Z,25.50
2019-05-18T07:37:42.401Z,25.67
2019-05-18T07:40:12.003Z,22.63
2019-05-18T07:45:21.688Z,19.10
2019-05-18T07:47:50.454Z,23.03
2019-05-18T07:50:19.310Z,22.37
2019-05-18T07:52:48.025Z,27.03
2019-05-18T07:55:16.742Z,26.40
2019-05-18T07:57:45.383Z,22.43
2019-05-18T08:00:14.260Z,26.03
2019-05-18T08:02:43.266Z,25.50
2019-05-18T08:05:12.693Z,24.07
2019-05-18T08:07:41.811Z,23.00
2019-05-18T08:12:48.260Z,22.93
2019-05-18T08:15:18.307Z,22.07
2019-05-18T08:17:46.999Z,19.13
2019-05-18T08:22:56.024Z,20.40
2019-05-18T08:25:25.107Z,19.77
2019-05-18T08:27:53.828Z,19.63
2019-05-18T08:33:02.335Z,17.70
2019-05-18T08:38:09.893Z,15.23
2019-05-18T08:40:38.947Z,17.57
2019-05-18T08:45:45.250Z,14.93
2019-05-18T08:48:13.901Z,11.93
2019-05-18T08:50:42.601Z,13.67
2019-05-18T08:53:11.990Z,11.07
2019-05-18T08:55:40.687Z,13.77
2019-05-18T08:58:09.309Z,15.13
2019-05-18T09:00:38.366Z,14.43
2019-05-18T09:05:45.193Z,11.67
2019-05-18T09:08:14.430Z,10.43
2019-05-18T09:10:43.435Z,12.37
2019-05-18T09:13:12.420Z,10.33
2019-05-18T09:15:41.365Z,11.63
2019-05-18T09:18:10.089Z,10.63
2019-05-18T09:20:39.552Z,9.57
2019-05-18T09:23:08.541Z,10.37
2019-05-18T09:28:16.973Z,13.03
2019-05-18T09:30:46.758Z,9.68
2019-05-18T09:33:15.756Z,10.13
2019-05-18T09:35:45.150Z,8.73
2019-05-18T09:40:51.024Z,7.17
2019-05-18T09:43:19.588Z,6.83
2019-05-18T09:45:48.726Z,6.40
2019-05-18T09:48:17.326Z,6.85
2019-05-18T09:53:29.809Z,8.43
2019-05-18T09:55:57.310Z,10.53
2019-05-18T10:01:03.509Z,11.87
2019-05-18T10:03:32.184Z,9.73
2019-05-18T10:08:38.473Z,12.70
2019-05-18T10:11:07.262Z,12.23
2019-05-18T10:13:36.095Z,10.23
2019-05-18T10:16:04.827Z,10.75
2019-05-18T10:21:13.206Z,10.35
2019-05-18T10:23:41.732Z,9.87
2019-05-18T10:26:10.149Z,9.73
2019-05-18T10:28:38.988Z,9.15
2019-05-18T10:31:08.536Z,10.25
2019-05-18T10:33:37.539Z,11.75
2019-05-18T10:36:06.823Z,9.78
2019-05-18T10:41:12.998Z,8.93
2019-05-18T10:43:41.653Z,8.60
2019-05-18T10:46:10.309Z,9.40
2019-05-18T10:48:40.015Z,7.60
2019-05-18T10:51:08.657Z,13.10
2019-05-18T10:53:37.474Z,9.73
2019-05-18T10:58:45.963Z,10.85
2019-05-18T11:01:14.839Z,7.05
2019-05-18T11:03:44.353Z,6.40
2019-05-18T11:06:13.434Z,8.43
2019-05-18T11:08:42.135Z,6.60
2019-05-18T11:13:49.288Z,7.28
2019-05-18T11:18:57.417Z,8.70
2019-05-18T11:21:26.054Z,6.30
2019-05-18T11:26:34.523Z,7.12
2019-05-18T11:29:03.280Z,9.80
2019-05-18T11:31:32.205Z,7.20
2019-05-18T11:36:38.495Z,6.10
2019-05-18T11:39:07.645Z,6.03
2019-05-18T11:44:16.369Z,6.97
2019-05-18T11:46:45.450Z,5.85
2019-05-18T11:49:14.414Z,6.62
2019-05-18T11:51:43.186Z,4.90
2019-05-18T11:54:12.216Z,5.78
2019-05-18T11:59:18.427Z,3.87
2019-05-18T12:01:47.122Z,5.00
2019-05-18T12:04:16.274Z,3.42
2019-05-18T12:09:27.161Z,6.20
2019-05-18T12:11:56.333Z,3.85
2019-05-18T12:14:26.140Z,3.95
2019-05-18T12:16:55.336Z,4.80
2019-05-18T12:22:04.525Z,3.22
2019-05-18T12:24:33.639Z,4.08
2019-05-18T12:29:39.820Z,3.95
2019-05-18T12:32:08.483Z,5.53
2019-05-18T12:37:22.158Z,3.75
2019-05-18T12:39:52.837Z,4.85
2019-05-18T12:42:22.005Z,4.40
2019-05-18T12:44:51.059Z,4.70
2019-05-18T12:47:20.859Z,5.95
2019-05-18T12:52:30.083Z,3.80
2019-05-18T12:57:36.374Z,4.45
2019-05-18T13:00:06.154Z,6.00
2019-05-18T13:05:12.910Z,7.40
2019-05-18T13:07:42.002Z,3.65
2019-05-18T13:10:11.649Z,3.75
2019-05-18T13:12:40.344Z,4.47
2019-05-18T13:17:47.000Z,5.05
2019-05-18T13:20:19.238Z,4.37
2019-05-18T13:22:47.871Z,3.35
2019-05-18T13:25:16.957Z,3.65
2019-05-18T13:30:26.566Z,4.03
2019-05-18T13:32:55.258Z,4.12
2019-05-18T13:35:24.000Z,3.80
2019-05-18T13:37:52.752Z,4.10
2019-05-18T13:40:23.276Z,6.12
2019-05-18T13:42:52.265Z,5.53
2019-05-18T13:48:00.650Z,3.20
2019-05-18T13:50:29.357Z,4.12
2019-05-18T13:55:36.223Z,4.65
2019-05-18T13:58:04.969Z,8.18
2019-05-18T14:00:33.615Z,5.62
2019-05-18T14:03:02.990Z,4.50
2019-05-18T14:08:16.124Z,5.95
2019-05-18T14:10:45.189Z,5.03
2019-05-18T14:13:14.144Z,3.60
2019-05-18T14:18:26.694Z,4.85
2019-05-18T14:20:55.688Z,3.87
2019-05-18T14:23:24.666Z,4.60
2019-05-18T14:25:53.343Z,4.72
2019-05-18T14:28:22.453Z,3.58
2019-05-18T14:30:53.068Z,4.10
2019-05-18T14:33:21.828Z,3.90
2019-05-18T14:38:28.012Z,6.30
2019-05-18T14:40:56.675Z,5.08
2019-05-18T14:43:25.881Z,4.15
2019-05-18T14:45:54.855Z,4.10
2019-05-18T14:51:02.729Z,3.87
2019-05-18T14:53:31.335Z,4.08
2019-05-18T14:56:01.048Z,3.00
2019-05-18T15:01:10.527Z,6.10
2019-05-18T15:03:39.407Z,4.42
2019-05-18T15:06:08.028Z,3.50
2019-05-18T15:08:37.589Z,6.45
2019-05-18T15:11:06.295Z,2.87
2019-05-18T15:13:35.361Z,3.70
2019-05-18T15:18:45.312Z,4.42
2019-05-18T15:21:13.974Z,4.87
2019-05-18T15:23:43.003Z,6.47
2019-05-18T15:26:11.687Z,5.20
2019-05-18T15:28:40.385Z,3.60
2019-05-18T15:31:10.514Z,3.83
2019-05-18T15:36:16.689Z,3.40
2019-05-18T15:38:46.094Z,3.05
2019-05-18T15:41:15.617Z,4.47
2019-05-18T15:43:44.242Z,4.33
2019-05-18T15:46:12.904Z,3.60
2019-05-18T15:51:19.108Z,2.95
2019-05-18T15:53:48.228Z,2.75
2019-05-18T15:56:17.343Z,3.60
2019-05-18T15:58:46.417Z,3.83
2019-05-18T16:01:15.422Z,5.22
2019-05-18T16:03:44.067Z,5.42
2019-05-18T16:08:56.494Z,4.58
2019-05-18T16:11:24.956Z,4.17
2019-05-18T16:13:53.886Z,4.17
2019-05-18T16:16:22.607Z,4.80
2019-05-18T16:18:52.378Z,3.30
2019-05-18T16:21:21.058Z,3.80
2019-05-18T16:23:50.384Z,4.87
2019-05-18T16:26:21.670Z,4.08
2019-05-18T16:28:49.684Z,3.22
2019-05-18T16:31:18.424Z,3.50
2019-05-18T16:33:48.098Z,4.07
2019-05-18T16:38:56.618Z,5.70
2019-05-18T16:41:25.706Z,3.00
2019-05-18T16:43:54.328Z,2.83
2019-05-18T16:46:23.532Z,3.02
2019-05-18T16:48:52.895Z,6.80
2019-05-18T16:51:22.233Z,3.87
2019-05-18T16:53:50.960Z,5.13
2019-05-18T16:56:19.661Z,5.10
2019-05-18T17:01:27.310Z,5.53
2019-05-18T17:03:55.972Z,8.53
2019-05-18T17:06:24.945Z,8.57
2019-05-18T17:08:55.059Z,4.03
2019-05-18T17:14:02.948Z,7.63
2019-05-18T17:16:31.632Z,6.33
2019-05-18T17:19:00.692Z,7.87
2019-05-18T17:21:29.787Z,5.90
2019-05-18T17:23:58.570Z,4.80
2019-05-18T17:26:27.512Z,4.27
2019-05-18T17:28:56.190Z,7.40
2019-05-18T17:31:24.928Z,4.30
2019-05-18T17:33:53.876Z,5.27
2019-05-18T17:36:24.104Z,6.93
2019-05-18T17:41:31.562Z,3.67
2019-05-18T17:44:00.348Z,6.47
2019-05-18T17:49:06.545Z,4.20
2019-05-18T17:51:35.163Z,6.00
2019-05-18T17:54:04.209Z,9.40
2019-05-18T17:56:32.894Z,6.00
2019-05-18T17:59:01.527Z,5.13
2019-05-18T18:04:08.674Z,3.70
2019-05-18T18:09:15.854Z,6.37
2019-05-18T18:11:44.820Z,7.17
2019-05-18T18:16:52.608Z,4.40
2019-05-18T18:21:59.114Z,4.97
2019-05-18T18:24:27.765Z,8.63
2019-05-18T18:26:57.066Z,4.73
2019-05-18T18:29:26.060Z,5.67
2019-05-18T18:31:54.668Z,4.90
2019-05-18T18:34:23.319Z,7.07
2019-05-18T18:36:52.233Z,4.53
2019-05-18T18:39:20.924Z,5.90
2019-05-18T18:41:49.838Z,5.90
2019-05-18T18:44:18.814Z,4.63
2019-05-18T18:49:25.478Z,8.20
2019-05-18T18:51:54.470Z,5.20
2019-05-18T18:57:04.315Z,4.87
2019-05-18T18:59:33.386Z,4.33
2019-05-18T19:02:02.051Z,4.53
2019-05-18T19:07:09.769Z,6.23
2019-05-18T19:09:38.922Z,5.33
2019-05-18T19:12:07.560Z,4.67
2019-05-18T19:14:36.716Z,6.97
2019-05-18T19:17:05.704Z,4.80
2019-05-18T19:19:34.810Z,7.17
2019-05-18T19:22:03.525Z,6.27
2019-05-18T19:27:17.174Z,9.50
2019-05-18T19:29:45.827Z,7.83
2019-05-18T19:32:14.855Z,7.63
2019-05-18T19:34:43.856Z,10.60
2019-05-18T19:37:12.557Z,6.60
2019-05-18T19:39:49.356Z,6.47
2019-05-18T19:42:18.134Z,6.57
2019-05-18T19:44:46.874Z,9.63
2019-05-18T19:47:15.467Z,7.00
2019-05-18T19:52:24.956Z,6.67
2019-05-18T19:54:53.667Z,7.50
2019-05-18T19:57:22.331Z,6.07
2019-05-18T20:02:30.990Z,7.17
2019-05-18T20:07:43.175Z,8.17
2019-05-18T20:12:58.248Z,8.83
2019-05-18T20:18:04.411Z,6.70
2019-05-18T20:23:11.275Z,7.23
2019-05-18T20:28:23.921Z,6.57
2019-05-18T20:30:51.527Z,7.03
2019-05-18T20:35:58.828Z,5.90
2019-05-18T20:38:28.367Z,7.00
2019-05-18T20:40:57.562Z,5.63
2019-05-18T20:46:05.886Z,7.53
2019-05-18T20:48:34.613Z,8.40
2019-05-18T20:51:03.628Z,8.43
2019-05-18T20:53:32.264Z,6.30
2019-05-18T20:56:01.414Z,9.10
2019-05-18T21:01:07.865Z,6.07
2019-05-18T21:03:36.908Z,6.77
2019-05-18T21:06:07.521Z,6.57
2019-05-18T21:08:36.508Z,7.63
2019-05-18T21:11:05.142Z,14.10
2019-05-18T21:16:17.268Z,13.30
2019-05-18T21:18:45.916Z,14.23
2019-05-18T21:21:14.639Z,11.80
2019-05-18T21:23:43.320Z,12.57
2019-05-18T21:26:11.985Z,11.57
2019-05-18T21:31:19.358Z,8.20
2019-05-18T21:33:48.120Z,14.33
2019-05-18T21:36:16.778Z,13.33
2019-05-18T21:41:23.828Z,8.47
2019-05-18T21:43:52.439Z,11.50
2019-05-18T21:49:09.210Z,8.33
2019-05-18T21:51:38.619Z,13.23
2019-05-18T21:54:07.598Z,10.50
2019-05-18T21:59:16.500Z,11.27
2019-05-18T22:04:26.162Z,12.40
2019-05-18T22:06:55.690Z,9.90
2019-05-18T22:12:04.350Z,10.70
2019-05-18T22:14:33.401Z,9.20
2019-05-18T22:17:02.531Z,11.47
2019-05-18T22:19:31.256Z,11.63
2019-05-18T22:21:59.905Z,9.63
2019-05-18T22:24:28.544Z,8.47
2019-05-18T22:26:57.244Z,14.43
2019-05-18T22:29:26.518Z,10.73
2019-05-18T22:31:55.495Z,12.23
2019-05-18T22:34:24.191Z,11.23
2019-05-18T22:36:52.942Z,13.60
2019-05-18T22:42:11.029Z,11.53
2019-05-18T22:44:39.836Z,9.90
2019-05-18T22:47:08.449Z,13.27
2019-05-18T22:49:37.111Z,11.63
2019-05-18T22:52:05.773Z,12.77
2019-05-18T22:54:34.486Z,11.87
2019-05-18T22:57:03.530Z,11.53
2019-05-18T22:59:32.849Z,11.37
2019-05-18T23:02:01.527Z,11.93
2019-05-18T23:04:30.641Z,14.30
2019-05-18T23:06:59.690Z,14.10
2019-05-18T23:09:30.944Z,14.43
2019-05-18T23:12:05.554Z,13.47
2019-05-18T23:14:34.153Z,13.70
2019-05-18T23:17:03.363Z,15.47
2019-05-18T23:19:33.127Z,11.47
2019-05-18T23:22:02.885Z,12.80
2019-05-18T23:24:32.689Z,12.37
2019-05-18T23:29:40.092Z,13.23
2019-05-18T23:32:08.815Z,13.40
2019-05-18T23:34:38.034Z,12.20
2019-05-18T23:37:07.172Z,12.57
2019-05-18T23:39:36.681Z,12.23
2019-05-18T23:42:05.655Z,11.90
2019-05-18T23:44:34.749Z,10.37
2019-05-18T23:47:04.436Z,13.33
2019-05-18T23:49:33.172Z,15.60
2019-05-18T23:54:41.674Z,13.57
2019-05-18T23:57:11.193Z,9.83
